Time;durP1;ratioP1;P1;durP2;ratioP2;P2;SDS_P1;SDS_P2;PMS_P1;PMS_P2;Temp;Humidity;BMP_temperature;BMP_pressure;BME280_temperature;BME280_humidity;BME280_pressure;Samples;Min_cycle;Max_cycle;Signal;HPM_P1;HPM_P2
2022/06/07 00:01:15;;;;;;;8.05;3.63;;;;;;;10.39;100.00;100381.53;5083662;28;20605;-74
2022/06/07 00:03:41;;;;;;;9.43;4.97;;;;;;;10.38;100.00;100371.94;5084381;28;20130;-75
2022/06/07 00:06:06;;;;;;;6.28;4.40;;;;;;;10.34;100.00;100363.38;5080321;28;20020;-75
2022/06/07 00:08:32;;;;;;;7.25;5.07;;;;;;;10.31;100.00;100354.81;5092673;28;20485;-75
2022/06/07 00:10:59;;;;;;;8.45;4.30;;;;;;;10.24;100.00;100344.56;5079855;28;20387;-76
2022/06/07 00:13:25;;;;;;;10.38;4.60;;;;;;;10.36;100.00;100358.03;5082590;28;20032;-75
2022/06/07 00:15:50;;;;;;;6.07;4.57;;;;;;;10.29;100.00;100348.75;5107802;28;20067;-75
2022/06/07 00:18:16;;;;;;;5.53;4.25;;;;;;;10.34;100.00;100350.25;5094906;28;20085;-75
2022/06/07 00:20:42;;;;;;;8.45;4.28;;;;;;;10.43;100.00;100369.94;5081811;28;20056;-76
2022/06/07 00:23:11;;;;;;;8.38;3.92;;;;;;;10.28;100.00;100340.03;5082272;28;20024;-75
2022/06/07 00:25:37;;;;;;;9.10;4.13;;;;;;;10.29;100.00;100330.38;5092997;28;20489;-76
2022/06/07 00:28:02;;;;;;;5.78;3.75;;;;;;;10.39;100.00;100347.38;5083936;28;20028;-75
2022/06/07 00:30:30;;;;;;;5.00;3.88;;;;;;;10.45;100.00;100357.56;5081761;28;20043;-75
2022/06/07 00:32:55;;;;;;;8.20;4.65;;;;;;;10.34;100.00;100338.88;5089011;28;20082;-76
2022/06/07 00:35:21;;;;;;;6.78;4.35;;;;;;;10.47;100.00;100360.97;5091143;28;20470;-76
2022/06/07 00:37:47;;;;;;;6.72;4.63;;;;;;;10.41;100.00;100342.91;5094894;28;20028;-76
2022/06/07 00:40:13;;;;;;;5.63;4.22;;;;;;;10.47;100.00;100358.34;5093255;28;20039;-75
2022/06/07 00:42:38;;;;;;;8.40;3.45;;;;;;;10.44;100.00;100354.13;5083391;28;20028;-76
2022/06/07 00:45:04;;;;;;;5.78;3.67;;;;;;;10.40;100.00;100338.56;5074619;28;20055;-75
2022/06/07 00:47:30;;;;;;;9.13;4.03;;;;;;;10.37;100.00;100329.09;5092615;28;20062;-75
2022/06/07 00:50:06;;;;;;;6.63;3.92;;;;;;;10.54;100.00;100344.84;5094181;28;20538;-76
2022/06/07 00:52:33;;;;;;;5.68;3.75;;;;;;;10.53;100.00;100355.41;5088391;28;20028;-75
2022/06/07 00:55:00;;;;;;;8.07;3.53;;;;;;;10.50;100.00;100350.31;5080856;28;20401;-76
2022/06/07 00:57:25;;;;;;;7.40;3.50;;;;;;;10.51;100.00;100346.78;5088082;28;20429;-76
2022/06/07 00:59:51;;;;;;;6.15;3.65;;;;;;;10.43;100.00;100335.78;5075013;28;20036;-76
2022/06/07 01:02:17;;;;;;;10.10;3.53;;;;;;;10.45;100.00;100337.41;5089535;28;20046;-76
2022/06/07 01:04:42;;;;;;;7.38;4.50;;;;;;;10.37;100.00;100329.09;5085682;28;20033;-76
2022/06/07 01:12:36;;;;;;;5.60;4.07;;;;;;;10.37;100.00;100322.97;5075023;28;20406;-76
2022/06/07 01:15:01;;;;;;;5.47;3.63;;;;;;;10.43;100.00;100335.78;5093997;28;20020;-76
2022/06/07 01:17:28;;;;;;;6.30;3.38;;;;;;;10.39;100.00;100329.00;5089579;28;20036;-77
2022/06/07 01:19:54;;;;;;;5.93;3.72;;;;;;;10.39;100.00;100316.72;5088974;28;20032;-77
2022/06/07 01:22:19;;;;;;;5.30;3.33;;;;;;;10.20;100.00;100287.91;5091158;28;20027;-77
2022/06/07 01:24:45;;;;;;;7.88;3.60;;;;;;;10.42;100.00;100320.94;5090966;28;20394;-74
2022/06/07 01:27:11;;;;;;;5.07;3.28;;;;;;;10.50;100.00;100334.56;5079872;28;20039;-77
2022/06/07 01:29:37;;;;;;;7.10;3.50;;;;;;;10.42;100.00;100315.69;5074731;28;20032;-77
2022/06/07 01:32:04;;;;;;;5.00;3.22;;;;;;;10.05;100.00;100251.88;5094106;28;20036;-77
2022/06/07 01:34:29;;;;;;;6.10;3.72;;;;;;;10.40;100.00;100307.06;5089594;28;20025;-77
2022/06/07 01:36:56;;;;;;;7.85;3.88;;;;;;;10.53;100.00;100329.16;5077983;28;20016;-77
2022/06/07 01:42:07;;;;;;;5.57;3.40;;;;;;;10.63;100.00;100319.88;5092142;28;20050;-77
2022/06/07 01:44:47;;;;;;;11.15;4.07;;;;;;;10.20;100.00;100250.31;5083132;28;20479;-78
2022/06/07 01:47:16;;;;;;;5.82;4.05;;;;;;;10.62;100.00;100316.38;5073053;28;20278;-78
2022/06/07 01:49:41;;;;;;;6.88;4.28;;;;;;;10.55;100.00;100293.13;5090783;28;20039;-78
2022/06/07 01:52:08;;;;;;;7.03;4.20;;;;;;;10.55;100.00;100295.75;5090300;28;20036;-77
2022/06/07 01:54:34;;;;;;;5.50;3.75;;;;;;;10.56;100.00;100290.44;5089905;28;20081;-77
2022/06/07 01:56:59;;;;;;;7.47;3.80;;;;;;;10.66;100.00;100310.03;5091898;28;20020;-77
2022/06/07 01:59:25;;;;;;;8.25;4.35;;;;;;;10.69;100.00;100309.88;5091983;28;20535;-76
2022/06/07 02:01:51;;;;;;;6.35;3.47;;;;;;;10.67;100.00;100310.91;5086745;28;20021;-77
2022/06/07 02:04:17;;;;;;;5.97;4.20;;;;;;;10.62;100.00;100299.75;5081319;28;20070;-76
2022/06/07 02:06:43;;;;;;;5.47;3.40;;;;;;;10.53;100.00;100281.84;5091084;28;20043;-77
2022/06/07 02:09:10;;;;;;;6.70;4.03;;;;;;;10.60;100.00;100299.00;5079853;28;20028;-77
2022/06/07 02:11:36;;;;;;;6.80;4.18;;;;;;;10.56;100.00;100287.81;5068985;28;20029;-76
2022/06/07 02:14:03;;;;;;;8.35;3.78;;;;;;;10.43;100.00;100272.75;5090086;28;20822;-76
2022/06/07 02:16:28;;;;;;;6.78;4.18;;;;;;;10.54;100.00;100288.81;5093010;28;20377;-76
2022/06/07 02:18:53;;;;;;;10.95;3.72;;;;;;;10.57;100.00;100283.41;5082066;28;20192;-77
2022/06/07 02:21:23;;;;;;;5.22;4.20;;;;;;;10.66;100.00;100309.19;5086696;28;20037;-78
2022/06/07 02:23:49;;;;;;;10.25;4.32;;;;;;;10.51;100.00;100281.91;5085569;28;20028;-77
2022/06/07 02:26:21;;;;;;;7.88;4.30;;;;;;;10.65;100.00;100296.97;5090431;28;20024;-77
2022/06/07 02:29:01;;;;;;;5.82;4.40;;;;;;;10.62;100.00;100305.00;5092822;28;20020;-77
2022/06/07 02:31:29;;;;;;;8.82;4.40;;;;;;;10.38;100.00;100257.22;5091101;28;20035;-77
2022/06/07 02:33:57;;;;;;;8.52;3.97;;;;;;;10.59;100.00;100302.56;5089290;28;20052;-77
2022/06/07 02:36:23;;;;;;;6.10;3.85;;;;;;;10.27;100.00;100259.56;5085549;28;20036;-77
2022/06/07 02:38:49;;;;;;;4.00;3.08;;;;;;;10.44;100.00;100285.81;5085053;28;20452;-77
2022/06/07 02:41:18;;;;;;;6.13;4.63;;;;;;;10.37;100.00;100275.69;5087038;28;20600;-77
2022/06/07 02:43:44;;;;;;;6.07;3.10;;;;;;;10.49;100.00;100293.44;5076573;28;20127;-74
2022/06/07 02:46:09;;;;;;;6.95;4.05;;;;;;;10.40;100.00;100267.66;5091487;28;20110;-77
2022/06/07 02:48:35;;;;;;;8.43;4.40;;;;;;;10.50;100.00;100284.66;5092412;28;20132;-77
2022/06/07 02:51:00;;;;;;;6.32;3.83;;;;;;;10.41;100.00;100272.00;5091070;28;20133;-77
2022/06/07 02:53:25;;;;;;;4.47;3.63;;;;;;;10.41;100.00;100275.44;5092440;28;20376;-77
2022/06/07 02:55:51;;;;;;;6.35;4.40;;;;;;;10.42;100.00;100274.53;5085242;28;20031;-77
2022/06/07 02:58:16;;;;;;;7.88;4.38;;;;;;;10.22;100.00;100241.41;5092262;28;20021;-77
2022/06/07 03:00:42;;;;;;;8.90;4.68;;;;;;;10.49;100.00;100275.91;5093346;28;20035;-76
2022/06/07 03:03:07;;;;;;;7.25;4.03;;;;;;;10.46;100.00;100262.09;5090988;28;20029;-75
2022/06/07 03:05:32;;;;;;;6.95;3.90;;;;;;;10.48;100.00;100262.84;5093556;28;20055;-75
2022/06/07 03:07:58;;;;;;;5.80;3.90;;;;;;;10.37;100.00;100245.03;5095824;28;20027;-75
2022/06/07 03:10:23;;;;;;;7.07;4.00;;;;;;;10.51;100.00;100267.97;5096664;28;20054;-75
2022/06/07 03:12:49;;;;;;;7.88;4.75;;;;;;;10.46;100.00;100262.09;5096720;28;20421;-77
2022/06/07 03:15:14;;;;;;;6.20;4.20;;;;;;;10.58;100.00;100282.44;5092657;28;20056;-77
2022/06/07 03:17:40;;;;;;;8.88;4.00;;;;;;;10.60;100.00;100289.34;5096022;28;20107;-77
2022/06/07 03:20:08;;;;;;;5.68;3.75;;;;;;;10.50;100.00;100276.75;5083107;28;20050;-76
2022/06/07 03:22:34;;;;;;;5.45;3.88;;;;;;;10.49;100.00;100269.81;5087913;28;20379;-77
2022/06/07 03:25:05;;;;;;;5.95;3.85;;;;;;;10.56;100.00;100286.94;5083569;28;20062;-77
2022/06/07 03:27:32;;;;;;;8.45;4.53;;;;;;;10.45;100.00;100273.50;5092342;28;20032;-77
2022/06/07 03:29:58;;;;;;;5.57;3.58;;;;;;;10.47;100.00;100275.16;5094297;28;20115;-77
2022/06/07 03:32:24;;;;;;;12.57;3.95;;;;;;;10.59;100.00;100297.28;5085702;28;20063;-77
2022/06/07 03:34:50;;;;;;;7.68;4.38;;;;;;;10.45;100.00;100271.75;5090558;28;20359;-77
2022/06/07 03:37:16;;;;;;;5.78;3.60;;;;;;;10.47;100.00;100274.28;5094425;28;20034;-77
2022/06/07 03:39:42;;;;;;;6.97;4.18;;;;;;;10.58;100.00;100287.69;5087544;28;20020;-75
2022/06/07 03:42:07;;;;;;;7.00;4.07;;;;;;;10.60;100.00;100293.75;5087473;28;20406;-76
2022/06/07 03:44:33;;;;;;;14.98;4.68;;;;;;;10.71;100.00;100301.94;5087144;28;20034;-75
2022/06/07 03:46:58;;;;;;;7.45;4.35;;;;;;;10.64;100.00;100298.78;5084102;28;20030;-75
2022/06/07 03:49:24;;;;;;;6.05;3.92;;;;;;;10.63;100.00;100293.59;5083785;28;20522;-75
2022/06/07 03:51:49;;;;;;;8.43;4.70;;;;;;;10.51;100.00;100275.84;5086332;28;20070;-76
2022/06/07 03:54:15;;;;;;;9.75;4.63;;;;;;;10.58;100.00;100290.34;5091299;28;20055;-75
2022/06/07 03:56:40;;;;;;;5.20;4.07;;;;;;;10.51;100.00;100279.28;5077219;28;20031;-75
2022/06/07 03:59:06;;;;;;;7.65;4.95;;;;;;;10.59;100.00;100286.78;5078117;28;20020;-76
2022/06/07 04:01:35;;;;;;;7.10;4.57;;;;;;;10.73;100.00;100313.19;5083180;28;20024;-76
2022/06/07 04:04:05;;;;;;;5.88;4.05;;;;;;;10.70;100.00;100301.06;5086239;28;20020;-76
2022/06/07 04:08:10;;;;;;;7.47;4.47;;;;;;;10.81;100.00;100313.66;5095298;28;20028;-76
2022/06/07 04:09:28;;;;;;;6.43;4.35;;;;;;;10.76;100.00;100308.63;5078850;28;20478;-76
2022/06/07 04:11:53;;;;;;;8.73;4.63;;;;;;;10.65;100.00;100291.72;5087951;28;20035;-77
2022/06/07 04:14:19;;;;;;;7.50;4.05;;;;;;;10.79;100.00;100302.34;5079311;28;20038;-77
2022/06/07 04:16:44;;;;;;;5.70;4.15;;;;;;;10.72;100.00;100272.06;5092116;28;20075;-76
2022/06/07 04:19:10;;;;;;;10.48;4.97;;;;;;;10.98;100.00;100310.13;5092130;28;20389;-77
2022/06/07 04:21:35;;;;;;;8.10;4.63;;;;;;;11.06;100.00;100302.66;5092498;28;20024;-78
2022/06/07 04:24:01;;;;;;;9.40;5.38;;;;;;;11.11;100.00;100301.50;5092031;28;20069;-76
2022/06/07 04:26:27;;;;;;;7.10;4.10;;;;;;;11.25;100.00;100320.00;5069758;28;20482;-77
2022/06/07 04:28:53;;;;;;;6.25;4.32;;;;;;;11.20;100.00;100308.03;5092543;28;20028;-77
2022/06/07 04:31:21;;;;;;;15.95;5.03;;;;;;;11.36;100.00;100322.06;5088099;28;20486;-77
2022/06/07 04:33:47;;;;;;;7.22;4.80;;;;;;;11.34;100.00;100296.78;5079524;28;20059;-78
2022/06/07 04:36:18;;;;;;;8.73;4.97;;;;;;;11.50;100.00;100323.94;5091019;28;20078;-77
2022/06/07 04:38:44;;;;;;;6.20;4.60;;;;;;;11.54;100.00;100321.06;5087868;28;20059;-77
2022/06/07 04:41:14;;;;;;;7.43;4.85;;;;;;;11.62;100.00;100318.84;5084591;28;20051;-77
2022/06/07 04:43:40;;;;;;;7.35;4.63;;;;;;;11.51;100.00;100294.06;5064075;28;20056;-77
2022/06/07 04:46:11;;;;;;;7.57;4.93;;;;;;;11.57;100.00;100291.09;5051093;28;20024;-78
2022/06/07 04:48:41;;;;;;;11.82;4.75;;;;;;;11.72;100.00;100303.44;5049094;28;20947;-78
2022/06/07 04:51:14;;;;;;;11.25;4.70;;;;;;;12.00;100.00;100324.59;5050492;28;20020;-78
2022/06/07 04:53:40;;;;;;;9.07;5.00;;;;;;;11.55;100.00;100235.06;5051301;28;20145;-76
2022/06/07 04:56:13;;;;;;;8.43;4.50;;;;;;;12.14;100.00;100318.53;5043933;28;20135;-76
2022/06/07 04:58:39;;;;;;;8.25;4.90;;;;;;;12.05;100.00;100287.47;5036867;28;20093;-77
2022/06/07 05:01:12;;;;;;;7.40;5.05;;;;;;;12.20;100.00;100300.59;5048920;28;20049;-77
2022/06/07 05:03:38;;;;;;;8.13;5.80;;;;;;;12.32;100.00;100314.00;5043962;28;20032;-76
2022/06/07 05:06:14;;;;;;;8.30;5.55;;;;;;;12.26;100.00;100281.81;5048795;28;20127;-76
2022/06/07 05:08:40;;;;;;;9.88;5.22;;;;;;;12.71;100.00;100328.28;5053290;28;20028;-77
2022/06/07 05:11:08;;;;;;;6.40;4.30;;;;;;;12.92;100.00;100322.66;5038687;28;20019;-77
2022/06/07 05:13:33;;;;;;;5.80;4.00;;;;;;;13.13;100.00;100322.22;5051463;28;20020;-78
2022/06/07 05:15:59;;;;;;;7.15;3.83;;;;;;;13.23;100.00;100319.88;5052654;28;20028;-77
2022/06/07 05:18:24;;;;;;;6.53;3.95;;;;;;;13.34;100.00;100321.84;5040868;28;20808;-77
2022/06/07 05:20:50;;;;;;;7.53;3.97;;;;;;;13.06;100.00;100276.03;5043263;28;20035;-76
2022/06/07 05:23:15;;;;;;;10.30;3.97;;;;;;;13.27;100.00;100290.56;5035153;28;20135;-77
2022/06/07 05:25:44;;;;;;;11.10;4.03;;;;;;;13.37;100.00;100300.53;5040097;28;20862;-76
2022/06/07 05:28:10;;;;;;;5.40;3.65;;;;;;;13.35;100.00;100297.16;5056854;28;20826;-77
2022/06/07 05:30:36;;;;;;;8.27;3.95;;;;;;;13.52;100.00;100318.06;5046658;28;20867;-76
2022/06/07 05:33:01;;;;;;;6.15;4.00;;;;;;;13.53;100.00;100311.81;5051452;28;20048;-77
2022/06/07 05:35:26;;;;;;;6.80;3.75;;;;;;;13.66;100.00;100339.97;5051327;28;20035;-78
2022/06/07 05:37:56;;;;;;;6.22;3.92;;;;;;;13.53;100.00;100322.38;5057162;28;20185;-79
2022/06/07 05:40:22;;;;;;;4.95;3.17;;;;;;;13.60;100.00;100326.31;5047710;28;20020;-77
2022/06/07 05:42:47;;;;;;;7.32;3.50;;;;;;;13.56;100.00;100338.00;5038966;28;20127;-76
2022/06/07 05:45:12;;;;;;;6.78;3.28;;;;;;;13.48;100.00;100324.47;5056568;28;20167;-77
2022/06/07 05:47:38;;;;;;;7.45;3.60;;;;;;;13.44;100.00;100318.53;5034750;28;20020;-79
2022/06/07 05:50:07;;;;;;;9.23;3.53;;;;;;;13.57;100.00;100342.34;5051967;28;20028;-77
2022/06/07 05:52:34;;;;;;;5.93;3.38;;;;;;;13.57;100.00;100340.56;5054933;28;20918;-77
2022/06/07 05:55:00;;;;;;;9.18;3.45;;;;;;;13.56;100.00;100327.44;5056632;28;20107;-77
2022/06/07 05:57:25;;;;;;;5.45;3.03;;;;;;;13.67;100.00;100346.09;5057522;28;20024;-77
2022/06/07 05:59:51;;;;;;;4.90;2.47;;;;;;;13.80;100.00;100345.22;5055641;28;20192;-77
2022/06/07 06:02:16;;;;;;;10.23;3.10;;;;;;;13.68;100.00;100303.78;5056081;28;20028;-77
2022/06/07 06:04:42;;;;;;;7.15;3.58;;;;;;;13.91;100.00;100341.03;5049713;28;20028;-78
2022/06/07 06:07:07;;;;;;;5.70;2.92;;;;;;;13.87;100.00;100326.31;5051957;28;20506;-79
2022/06/07 06:12:16;;;;;;;4.73;2.53;;;;;;;13.80;100.00;100317.97;5052845;28;20105;-76
2022/06/07 06:14:42;;;;;;;3.90;1.95;;;;;;;13.76;100.00;100312.03;5025610;28;20481;-76
2022/06/07 06:17:07;;;;;;;8.57;2.70;;;;;;;13.86;100.00;100330.75;5048861;28;20047;-78
2022/06/07 06:19:33;;;;;;;14.60;3.28;;;;;;;13.85;100.00;100323.81;5048659;28;20040;-78
2022/06/07 06:21:58;;;;;;;4.75;2.90;;;;;;;14.00;100.00;100343.94;5050088;28;20131;-75
2022/06/07 06:24:25;;;;;;;4.47;2.47;;;;;;;13.74;100.00;100302.50;5048946;28;20035;-77
2022/06/07 06:26:52;;;;;;;6.80;2.40;;;;;;;14.02;100.00;100326.19;5043456;28;20020;-78
2022/06/07 06:29:17;;;;;;;5.55;2.67;;;;;;;14.11;100.00;100316.81;5063416;28;20028;-78
2022/06/07 06:31:46;;;;;;;8.95;2.95;;;;;;;14.26;100.00;100340.41;5059915;28;20059;-77
2022/06/07 06:34:11;;;;;;;4.05;2.20;;;;;;;14.30;100.00;100327.84;5054376;28;20035;-74
2022/06/07 06:36:39;;;;;;;6.40;2.60;;;;;;;14.25;100.00;100325.53;5066999;27;20016;-77
2022/06/07 06:39:06;;;;;;;5.10;2.60;;;;;;;14.26;100.00;100324.56;5047913;28;20138;-77
2022/06/07 06:41:32;;;;;;;8.38;2.88;;;;;;;14.43;100.00;100341.16;5052721;28;20016;-76
2022/06/07 06:44:00;;;;;;;3.78;1.95;;;;;;;14.47;100.00;100317.03;5049967;28;20020;-77
2022/06/07 06:46:34;;;;;;;4.95;2.97;;;;;;;14.70;100.00;100336.63;5040158;28;20094;-77
2022/06/07 06:49:00;;;;;;;11.45;2.45;;;;;;;14.66;100.00;100329.84;5049989;28;20028;-77
2022/06/07 06:51:27;;;;;;;10.25;2.40;;;;;;;14.74;100.00;100340.75;5050895;28;20823;-77
2022/06/07 06:53:55;;;;;;;4.32;2.47;;;;;;;14.36;100.00;100281.69;5055178;28;20058;-77
2022/06/07 06:56:22;;;;;;;7.57;2.45;;;;;;;14.73;100.00;100357.59;5075318;28;20040;-78
2022/06/07 06:58:48;;;;;;;6.93;2.67;;;;;;;14.70;100.00;100353.31;5070778;28;20024;-78
2022/06/07 07:01:17;;;;;;;5.78;2.17;;;;;;;14.70;100.00;100344.56;5085642;28;20534;-76
2022/06/07 07:03:43;;;;;;;6.22;2.65;;;;;;;14.82;100.00;100349.00;5074559;28;20036;-77
2022/06/07 07:06:10;;;;;;;5.63;2.55;;;;;;;14.98;100.00;100354.94;5089061;28;20101;-77
2022/06/07 07:08:37;;;;;;;6.32;2.45;;;;;;;14.96;100.00;100334.84;5089539;28;20024;-76
2022/06/07 07:11:35;;;;;;;7.03;2.58;;;;;;;15.20;100.00;100349.88;5088209;28;20059;-77
2022/06/07 07:14:00;;;;;;;13.40;2.33;;;;;;;15.27;100.00;100345.84;5080228;28;20089;-76
2022/06/07 07:16:29;;;;;;;4.82;1.90;;;;;;;15.24;100.00;100324.03;5073644;28;20020;-76
2022/06/07 07:18:55;;;;;;;4.05;1.85;;;;;;;15.41;100.00;100349.31;5082814;28;20028;-77
2022/06/07 07:21:23;;;;;;;5.30;2.28;;;;;;;15.53;100.00;100356.41;5071911;28;20082;-78
2022/06/07 07:23:49;;;;;;;3.40;1.92;;;;;;;15.54;100.00;100337.78;5089227;28;20073;-77
2022/06/07 07:26:21;;;;;;;7.03;1.85;;;;;;;15.63;100.00;100354.78;5091421;28;20039;-77
2022/06/07 07:28:46;;;;;;;9.07;2.20;;;;;;;15.72;100.00;100356.75;5090296;28;20516;-78
2022/06/07 07:31:19;;;;;;;6.28;2.42;;;;;;;15.81;100.00;100350.81;5090301;28;20032;-78
2022/06/07 07:33:45;;;;;;;7.32;2.38;;;;;;;15.61;100.00;100311.69;5078113;28;20028;-77
2022/06/07 07:36:10;;;;;;;5.47;2.42;;;;;;;15.83;100.00;100344.44;5090980;28;20465;-78
2022/06/07 07:38:36;;;;;;;4.35;1.92;;;;;;;16.01;100.00;100362.63;5107044;28;20457;-78
2022/06/07 07:41:03;;;;;;;3.60;1.83;;;;;;;15.99;100.00;100348.63;5091111;28;20028;-78
2022/06/07 07:43:28;;;;;;;7.78;2.13;;;;;;;15.76;100.00;100292.00;5092015;28;20097;-78
2022/06/07 07:45:55;;;;;;;3.67;2.03;;;;;;;16.16;100.00;100349.06;5090968;28;20466;-78
2022/06/07 07:48:22;;;;;;;4.90;2.25;;;;;;;15.86;100.00;100303.63;5090152;28;20028;-77
2022/06/07 07:50:48;;;;;;;5.13;2.40;;;;;;;15.87;100.00;100301.81;5087211;28;20020;-79
2022/06/07 07:53:14;;;;;;;6.25;2.53;;;;;;;16.11;100.00;100335.31;5086291;28;20416;-78
2022/06/07 07:55:44;;;;;;;5.20;2.15;;;;;;;16.18;100.00;100333.91;5083564;28;20024;-78
2022/06/07 07:58:09;;;;;;;4.28;2.08;;;;;;;16.14;100.00;100324.50;5088276;28;20390;-78
2022/06/07 08:00:35;;;;;;;4.70;2.28;;;;;;;16.30;100.00;100351.56;5088474;28;20031;-77
2022/06/07 08:03:00;;;;;;;4.35;2.45;;;;;;;16.27;100.00;100335.88;5082884;28;20394;-76
2022/06/07 08:05:26;;;;;;;4.45;2.25;;;;;;;16.40;100.00;100332.28;5066622;28;20062;-79
2022/06/07 08:07:52;;;;;;;4.75;1.77;;;;;;;16.63;100.00;100339.38;5076539;28;20035;-77
2022/06/07 08:10:18;;;;;;;2.95;1.52;;;;;;;16.79;100.00;100337.28;5088385;28;20142;-77
2022/06/07 08:12:44;;;;;;;4.53;1.85;;;;;;;16.76;100.00;100321.59;5079176;28;20024;-78
2022/06/07 08:15:10;;;;;;;4.75;2.17;;;;;;;16.86;100.00;100325.22;5092454;28;20028;-77
2022/06/07 08:17:36;;;;;;;4.45;2.05;;;;;;;16.79;100.00;100319.53;5091532;28;20464;-77
2022/06/07 08:20:01;;;;;;;4.50;2.30;;;;;;;16.65;100.00;100287.06;5091131;28;20587;-77
2022/06/07 08:22:27;;;;;;;5.72;2.17;;;;;;;16.97;100.00;100309.28;5090348;28;20031;-77
2022/06/07 08:24:52;;;;;;;7.47;2.03;;;;;;;17.20;100.00;100318.13;5081533;28;20804;-77
2022/06/07 08:27:18;;;;;;;3.80;1.55;;;;;;;17.40;100.00;100325.38;5078801;28;20052;-78
2022/06/07 08:29:44;;;;;;;4.35;1.67;;;;;;;17.41;100.00;100326.19;5095993;28;20073;-76
2022/06/07 08:32:09;;;;;;;3.53;1.55;;;;;;;17.21;100.00;100302.06;5090951;28;20040;-77
2022/06/07 08:37:36;;;;;;;2.57;1.30;;;;;;;17.40;100.00;100316.53;5084328;28;20039;-79
2022/06/07 08:40:04;;;;;;;4.70;1.60;;;;;;;17.36;100.00;100314.13;5090334;28;20050;-79
2022/06/07 08:42:33;;;;;;;3.10;1.85;;;;;;;17.35;100.00;100320.41;5090480;28;20050;-78
2022/06/07 08:45:08;;;;;;;4.35;1.40;;;;;;;17.41;100.00;100331.50;5079231;28;20024;-76
2022/06/07 08:47:39;;;;;;;2.28;1.33;;;;;;;17.37;100.00;100328.25;5068182;28;20048;-78
2022/06/07 08:50:30;;;;;;;4.32;1.77;;;;;;;17.23;100.00;100326.69;5073775;28;20053;-77
2022/06/07 08:52:59;;;;;;;5.80;1.73;;;;;;;17.31;100.00;100342.84;5090869;28;20029;-77
2022/06/07 08:55:31;;;;;;;6.32;1.95;;;;;;;17.23;100.00;100321.38;5091057;28;20034;-78
2022/06/07 08:57:59;;;;;;;4.68;1.95;;;;;;;17.33;100.00;100321.50;5091845;28;20024;-78
2022/06/07 09:00:31;;;;;;;3.55;1.73;;;;;;;17.64;100.00;100336.69;5092311;28;20623;-79
2022/06/07 09:03:12;;;;;;;5.18;1.98;;;;;;;17.86;100.00;100338.47;5101201;28;20039;-79
2022/06/07 09:05:37;;;;;;;4.15;1.80;;;;;;;17.93;100.00;100317.53;5086012;28;20032;-78
2022/06/07 09:08:03;;;;;;;5.75;2.20;;;;;;;18.10;100.00;100319.66;5074444;28;20073;-78
2022/06/07 09:13:12;;;;;;;3.97;1.70;;;;;;;18.31;100.00;100321.41;5079602;28;20051;-74
2022/06/07 09:15:39;;;;;;;3.78;1.85;;;;;;;18.19;100.00;100302.94;5076241;28;20441;-78
2022/06/07 09:18:11;;;;;;;5.70;2.45;;;;;;;18.32;100.00;100304.44;5091582;28;20027;-78
2022/06/07 09:20:42;;;;;;;5.93;2.20;;;;;;;18.45;100.00;100303.44;5074918;28;20032;-78
2022/06/07 09:23:16;;;;;;;5.15;2.05;;;;;;;18.67;100.00;100321.97;5075712;28;20036;-77
2022/06/07 09:25:48;;;;;;;5.05;1.92;;;;;;;18.64;100.00;100306.25;5070548;28;20397;-78
2022/06/07 09:28:31;;;;;;;4.35;2.00;;;;;;;18.72;100.00;100317.09;5070064;28;20032;-77
2022/06/07 09:31:11;;;;;;;7.93;2.63;;;;;;;18.71;100.00;100315.41;5093457;28;20103;-75
2022/06/07 09:33:48;;;;;;;4.57;1.90;;;;;;;18.77;100.00;100312.22;5076621;28;20031;-77
2022/06/07 09:36:39;;;;;;;8.20;2.03;;;;;;;18.97;100.00;100321.16;5072588;28;20032;-79
2022/06/07 09:39:12;;;;;;;5.65;2.40;;;;;;;19.06;100.00;100318.53;5087835;28;20129;-79
2022/06/07 09:41:40;;;;;;;5.90;2.35;;;;;;;19.05;100.00;100292.88;5075073;28;20089;-77
2022/06/07 09:44:21;;;;;;;4.47;1.92;;;;;;;19.25;100.00;100313.31;5103776;28;20020;-79
2022/06/07 09:46:58;;;;;;;5.15;1.90;;;;;;;19.34;100.00;100300.97;5083052;28;20099;-78
2022/06/07 09:49:26;;;;;;;8.95;2.08;;;;;;;19.46;100.00;100291.97;5085139;28;20052;-74
2022/06/07 09:51:52;;;;;;;4.00;1.65;;;;;;;19.55;100.00;100279.63;5074345;28;20409;-80
2022/06/07 09:54:20;;;;;;;4.50;1.63;;;;;;;19.55;100.00;100299.13;5082177;28;20115;-79
2022/06/07 09:57:09;;;;;;;5.88;1.70;;;;;;;19.62;100.00;100312.75;5068769;28;20382;-77
2022/06/07 09:59:42;;;;;;;5.25;1.90;;;;;;;19.61;100.00;100319.06;5065663;28;20044;-78
2022/06/07 10:02:51;;;;;;;8.52;1.77;;;;;;;19.35;100.00;100306.19;5085489;28;20035;-76
2022/06/07 10:05:39;;;;;;;6.20;1.88;;;;;;;19.20;100.00;100312.00;5084696;28;20035;-78
2022/06/07 10:08:20;;;;;;;6.03;1.95;;;;;;;19.07;100.00;100301.56;5086466;28;20032;-77
2022/06/07 10:11:10;;;;;;;5.35;1.88;;;;;;;18.98;100.00;100318.38;5089430;28;20090;-79
2022/06/07 10:13:43;;;;;;;6.03;1.90;;;;;;;18.69;100.00;100269.44;5088210;28;20054;-77
2022/06/07 10:16:30;;;;;;;4.23;1.73;;;;;;;18.74;100.00;100291.19;5074239;28;20520;-78
2022/06/07 10:19:08;;;;;;;4.47;1.85;;;;;;;18.94;100.00;100311.59;5087547;28;20731;-78
2022/06/07 10:21:52;;;;;;;5.55;2.17;;;;;;;18.98;100.00;100310.38;5088002;28;20494;-78
2022/06/07 10:24:39;;;;;;;3.58;1.90;;;;;;;19.05;100.00;100295.56;5080299;28;20067;-79
2022/06/07 10:27:11;;;;;;;4.50;2.15;;;;;;;19.15;100.00;100299.09;5073497;28;20036;-78
2022/06/07 10:30:01;;;;;;;6.63;1.77;;;;;;;19.22;100.00;100297.59;5087350;28;20114;-79
2022/06/07 10:32:44;;;;;;;3.15;1.88;;;;;;;19.04;100.00;100280.53;5091795;28;20102;-77
2022/06/07 10:35:17;;;;;;;6.38;1.90;;;;;;;19.08;100.00;100295.28;5092818;28;20031;-77
2022/06/07 10:37:55;;;;;;;3.90;1.70;;;;;;;18.89;100.00;100288.03;5091132;28;20031;-78
2022/06/07 10:40:25;;;;;;;3.60;1.95;;;;;;;18.96;100.00;100298.19;5103794;28;20085;-78
2022/06/07 10:42:56;;;;;;;4.63;2.05;;;;;;;18.67;100.00;100239.44;5093077;28;20024;-76
2022/06/07 10:45:24;;;;;;;6.47;2.17;;;;;;;19.15;100.00;100299.09;5081515;28;20052;-77
2022/06/07 10:48:05;;;;;;;4.72;2.20;;;;;;;19.26;100.00;100300.84;5104580;28;20023;-78
2022/06/07 10:50:36;;;;;;;4.93;2.35;;;;;;;19.30;100.00;100297.75;5091598;28;20028;-78
2022/06/07 10:53:25;;;;;;;5.22;2.42;;;;;;;19.42;100.00;100300.34;5092072;28;20447;-76
2022/06/07 10:55:54;;;;;;;7.43;2.60;;;;;;;19.25;100.00;100299.97;5074915;28;20115;-78
2022/06/07 10:58:40;;;;;;;4.45;2.30;;;;;;;19.29;100.00;100301.41;5077319;28;20020;-78
2022/06/07 11:01:28;;;;;;;8.82;2.88;;;;;;;19.52;100.00;100303.88;5082189;28;20032;-78
2022/06/07 11:10:21;;;;;;;6.97;3.00;;;;;;;19.70;100.00;100251.59;5080453;28;20044;-77
2022/06/07 11:13:32;;;;;;;5.00;2.65;;;;;;;19.87;100.00;100297.06;5080741;28;20078;-76
2022/06/07 11:16:20;;;;;;;5.22;2.33;;;;;;;19.58;100.00;100279.34;5054032;28;20395;-75
2022/06/07 11:18:46;;;;;;;6.38;2.92;;;;;;;18.77;100.00;100211.03;5074501;28;20127;-76
2022/06/07 11:21:29;;;;;;;8.40;3.15;;;;;;;18.76;100.00;100290.06;5085845;28;20035;-76
2022/06/07 11:24:06;;;;;;;4.28;2.53;;;;;;;18.16;100.00;100298.72;5078573;28;20039;-72
2022/06/07 11:27:02;;;;;;;5.60;2.85;;;;;;;17.42;100.00;100296.00;5082586;28;20032;-73
2022/06/07 11:29:31;;;;;;;5.60;3.47;;;;;;;16.99;100.00;100303.88;5081080;28;20370;-76
2022/06/07 11:31:58;;;;;;;6.68;3.47;;;;;;;16.59;100.00;100290.19;5075743;28;20032;-77
2022/06/07 11:34:32;;;;;;;7.07;2.58;;;;;;;16.30;100.00;100285.25;5093551;28;20474;-78
2022/06/07 11:37:01;;;;;;;5.25;3.25;;;;;;;16.26;100.00;100297.03;5093436;28;20032;-78
2022/06/07 11:39:28;;;;;;;8.45;4.05;;;;;;;16.19;100.00;100301.13;5086174;28;20012;-78
2022/06/07 11:41:56;;;;;;;8.57;3.53;;;;;;;16.07;100.00;100296.75;5071797;28;20742;-76
2022/06/07 11:44:38;;;;;;;7.60;3.78;;;;;;;15.99;100.00;100283.19;5086618;28;20074;-76
2022/06/07 11:47:06;;;;;;;4.13;2.75;;;;;;;15.90;100.00;100301.59;5085899;28;20040;-75
2022/06/07 11:49:42;;;;;;;6.30;3.47;;;;;;;15.66;100.00;100289.19;5092564;28;20073;-76